createdAt,value
2023-03-28T00:01:41.846Z,1.60
2023-03-28T00:04:11.566Z,1.75
2023-03-28T00:06:38.975Z,1.60
2023-03-28T00:09:05.879Z,1.55
2023-03-28T00:11:32.519Z,1.85
2023-03-28T00:14:01.299Z,1.70
2023-03-28T00:16:32.426Z,1.73
2023-03-28T00:19:11.762Z,1.50
2023-03-28T00:21:41.506Z,1.52
2023-03-28T00:24:13.968Z,1.73
2023-03-28T00:26:42.230Z,1.63
2023-03-28T00:29:15.788Z,1.75
2023-03-28T00:31:42.760Z,1.58
2023-03-28T00:34:09.619Z,1.50
2023-03-28T00:36:38.997Z,1.50
2023-03-28T00:41:39.868Z,1.48
2023-03-28T00:44:38.848Z,1.60
2023-03-28T00:47:09.285Z,1.27
2023-03-28T00:49:36.471Z,1.77
2023-03-28T00:52:04.778Z,1.50
2023-03-28T00:54:39.522Z,1.48
2023-03-28T00:57:09.081Z,1.27
2023-03-28T00:59:38.514Z,1.38
2023-03-28T01:04:46.532Z,1.40
2023-03-28T01:07:13.971Z,1.35
2023-03-28T01:09:40.903Z,1.52
2023-03-28T01:12:10.034Z,1.45
2023-03-28T01:14:39.308Z,1.35
2023-03-28T01:17:08.847Z,1.40
2023-03-28T01:20:02.557Z,1.50
2023-03-28T01:23:11.777Z,1.33
2023-03-28T01:26:11.218Z,1.30
2023-03-28T01:29:09.214Z,1.40
2023-03-28T01:31:56.410Z,1.35
2023-03-28T01:34:51.053Z,1.30
2023-03-28T01:37:30.101Z,1.25
2023-03-28T01:40:13.615Z,1.20
2023-03-28T01:42:44.554Z,1.25
2023-03-28T01:45:22.621Z,1.10
2023-03-28T01:47:55.356Z,1.23
2023-03-28T01:50:29.760Z,1.17
2023-03-28T01:53:03.566Z,1.02
2023-03-28T01:56:07.897Z,1.00
2023-03-28T01:58:44.870Z,1.08
2023-03-28T02:01:24.703Z,1.20
2023-03-28T02:03:56.362Z,1.30
2023-03-28T02:06:39.850Z,1.20
2023-03-28T02:09:14.634Z,1.30
2023-03-28T02:12:14.676Z,1.23
2023-03-28T02:15:05.131Z,0.90
2023-03-28T02:18:00.549Z,1.10
2023-03-28T02:20:55.452Z,1.30
2023-03-28T02:26:41.713Z,1.02
2023-03-28T02:29:28.543Z,0.93
2023-03-28T02:34:41.385Z,1.10
2023-03-28T02:37:22.906Z,1.20
2023-03-28T02:40:00.751Z,0.88
2023-03-28T02:43:01.299Z,1.50
2023-03-28T02:45:53.922Z,1.10
2023-03-28T02:54:31.422Z,1.10
2023-03-28T03:02:44.337Z,1.05
2023-03-28T03:05:11.862Z,1.20
2023-03-28T03:07:38.851Z,1.08
2023-03-28T03:10:07.570Z,1.00
2023-03-28T03:12:36.946Z,1.23
2023-03-28T03:15:05.300Z,1.00
2023-03-28T03:17:53.871Z,0.85
2023-03-28T03:20:26.728Z,1.05
2023-03-28T03:22:55.409Z,1.10
2023-03-28T03:25:22.408Z,1.08
2023-03-28T03:27:56.879Z,1.17
2023-03-28T03:30:23.873Z,1.00
2023-03-28T03:33:10.658Z,1.25
2023-03-28T03:35:38.541Z,1.10
2023-03-28T03:38:06.816Z,1.05
2023-03-28T03:40:34.061Z,1.15
2023-03-28T03:43:01.482Z,0.98
2023-03-28T03:45:28.701Z,0.90
2023-03-28T03:47:56.717Z,1.17
2023-03-28T03:50:24.034Z,1.23
2023-03-28T03:52:50.862Z,1.10
2023-03-28T03:55:23.216Z,1.00
2023-03-28T03:57:50.160Z,1.20
2023-03-28T04:00:17.266Z,1.20
2023-03-28T04:02:47.300Z,1.10
2023-03-28T04:05:20.014Z,1.00
2023-03-28T04:08:01.748Z,1.20
2023-03-28T04:10:34.070Z,1.27
2023-03-28T04:13:01.692Z,1.17
2023-03-28T04:15:28.953Z,0.98
2023-03-28T04:18:09.795Z,1.15
2023-03-28T04:20:41.828Z,1.30
2023-03-28T04:23:09.671Z,1.40
2023-03-28T04:25:41.712Z,1.00
2023-03-28T04:28:16.843Z,1.33
2023-03-28T04:30:58.246Z,1.50
2023-03-28T04:33:45.330Z,1.17
2023-03-28T04:36:18.775Z,1.60
2023-03-28T04:38:58.315Z,1.45
2023-03-28T04:41:46.252Z,1.90
2023-03-28T04:44:29.852Z,1.75
2023-03-28T04:47:02.324Z,1.50
2023-03-28T04:49:29.641Z,1.65
2023-03-28T04:51:56.605Z,1.90
2023-03-28T04:54:23.613Z,1.60
2023-03-28T04:57:04.784Z,1.80
2023-03-28T04:59:46.886Z,1.70
2023-03-28T05:02:22.303Z,1.90
2023-03-28T05:05:08.300Z,1.63
2023-03-28T05:07:35.173Z,1.67
2023-03-28T05:10:02.188Z,1.65
2023-03-28T05:12:34.721Z,1.85
2023-03-28T05:15:05.017Z,1.67
2023-03-28T05:17:33.990Z,1.60
2023-03-28T05:20:11.181Z,1.70
2023-03-28T05:22:49.024Z,1.70
2023-03-28T05:25:16.041Z,1.75
2023-03-28T05:27:42.971Z,1.90
2023-03-28T05:30:10.705Z,1.60
2023-03-28T05:32:38.765Z,1.48
2023-03-28T05:35:11.599Z,1.42
2023-03-28T05:37:41.216Z,1.67
2023-03-28T05:40:11.320Z,1.60
2023-03-28T05:42:40.656Z,1.85
2023-03-28T05:45:13.900Z,1.52
2023-03-28T05:48:16.126Z,1.65
2023-03-28T05:50:45.033Z,2.10
2023-03-28T05:53:12.065Z,1.77
2023-03-28T05:55:39.422Z,2.03
2023-03-28T05:58:06.455Z,1.80
2023-03-28T06:00:38.906Z,1.85
2023-03-28T06:03:07.938Z,2.38
2023-03-28T06:05:38.637Z,1.80
2023-03-28T06:08:15.592Z,1.92
2023-03-28T06:10:43.290Z,2.20
2023-03-28T06:13:19.939Z,2.05
2023-03-28T06:15:48.119Z,1.95
2023-03-28T06:18:16.234Z,1.92
2023-03-28T06:20:45.792Z,2.22
2023-03-28T06:23:12.733Z,2.08
2023-03-28T06:25:39.485Z,2.00
2023-03-28T06:28:07.043Z,2.47
2023-03-28T06:30:47.214Z,2.10
2023-03-28T06:33:14.110Z,2.10
2023-03-28T06:35:42.683Z,1.95
2023-03-28T06:38:09.468Z,2.05
2023-03-28T06:40:37.343Z,2.20
2023-03-28T06:43:04.035Z,2.17
2023-03-28T06:45:41.188Z,2.00
2023-03-28T06:48:12.171Z,2.10
2023-03-28T06:51:03.696Z,2.20
2023-03-28T06:53:31.036Z,2.25
2023-03-28T06:55:59.683Z,2.30
2023-03-28T06:58:27.076Z,2.33
2023-03-28T07:01:03.484Z,2.15
2023-03-28T07:03:36.474Z,2.20
2023-03-28T07:06:06.857Z,2.22
2023-03-28T07:08:34.470Z,2.10
2023-03-28T07:11:01.526Z,2.10
2023-03-28T07:13:31.778Z,2.10
2023-03-28T07:16:12.117Z,2.20
2023-03-28T07:18:39.155Z,2.45
2023-03-28T07:21:09.836Z,1.90
2023-03-28T07:23:36.957Z,1.98
2023-03-28T07:26:03.663Z,2.10
2023-03-28T07:28:31.001Z,1.65
2023-03-28T07:30:58.033Z,1.70
2023-03-28T07:33:34.213Z,2.13
2023-03-28T07:36:15.670Z,1.83
2023-03-28T07:38:48.408Z,2.22
2023-03-28T07:41:17.228Z,2.20
2023-03-28T07:43:44.218Z,1.90
2023-03-28T07:46:14.463Z,1.77
2023-03-28T07:48:42.814Z,1.65
2023-03-28T07:51:10.638Z,1.60
2023-03-28T07:53:38.415Z,1.80
2023-03-28T07:56:12.203Z,1.70
2023-03-28T07:58:57.477Z,1.60
2023-03-28T08:01:25.021Z,2.20
2023-03-28T08:03:56.815Z,1.70
2023-03-28T08:06:34.256Z,1.98
2023-03-28T08:09:02.761Z,1.90
2023-03-28T08:11:35.482Z,2.35
2023-03-28T08:14:03.787Z,1.92
2023-03-28T08:16:31.660Z,2.00
2023-03-28T08:19:10.081Z,1.98
2023-03-28T08:21:47.323Z,2.43
2023-03-28T08:24:19.514Z,1.63
2023-03-28T08:26:58.555Z,2.25
2023-03-28T08:29:25.487Z,1.98
2023-03-28T08:31:52.508Z,2.45
2023-03-28T08:34:19.361Z,2.30
2023-03-28T08:36:47.429Z,1.65
2023-03-28T08:39:27.204Z,1.90
2023-03-28T08:42:20.341Z,1.60
2023-03-28T08:45:08.851Z,1.95
2023-03-28T08:48:05.359Z,1.85
2023-03-28T08:50:45.214Z,1.85
2023-03-28T08:53:24.312Z,1.63
2023-03-28T08:58:23.579Z,2.20
2023-03-28T09:00:52.095Z,2.10
2023-03-28T09:03:21.842Z,1.80
2023-03-28T09:05:57.122Z,1.98
2023-03-28T09:08:32.745Z,1.65
2023-03-28T09:11:14.201Z,1.60
2023-03-28T09:13:49.988Z,1.70
2023-03-28T09:16:44.576Z,1.77
2023-03-28T09:19:37.057Z,1.40
2023-03-28T09:22:47.081Z,1.85
2023-03-28T09:25:32.278Z,1.50
2023-03-28T09:28:13.185Z,1.60
2023-03-28T09:30:48.562Z,1.58
2023-03-28T09:33:21.391Z,1.90
2023-03-28T09:35:50.427Z,1.42
2023-03-28T09:38:40.036Z,1.58
2023-03-28T09:41:16.590Z,1.50
2023-03-28T09:43:53.263Z,1.50
2023-03-28T09:46:57.561Z,1.38
2023-03-28T09:49:35.158Z,1.50
2023-03-28T09:52:24.626Z,1.50
2023-03-28T09:54:52.470Z,1.17
2023-03-28T09:57:21.766Z,1.23
2023-03-28T09:59:58.682Z,1.67
2023-03-28T10:02:32.607Z,1.25
2023-03-28T10:05:33.307Z,1.30
2023-03-28T10:08:22.533Z,1.42
2023-03-28T10:11:19.835Z,1.20
2023-03-28T10:13:49.957Z,1.52
2023-03-28T10:16:37.037Z,1.20
2023-03-28T10:19:33.428Z,1.23
2023-03-28T10:22:26.426Z,1.17
2023-03-28T10:24:55.344Z,1.20
2023-03-28T10:27:27.806Z,1.35
2023-03-28T10:29:58.668Z,1.13
2023-03-28T10:32:31.677Z,1.13
2023-03-28T10:35:30.309Z,1.00
2023-03-28T10:38:16.514Z,1.00
2023-03-28T10:41:11.649Z,1.40
2023-03-28T10:43:57.126Z,1.17
2023-03-28T10:46:44.419Z,1.45
2023-03-28T10:49:21.019Z,2.03
2023-03-28T10:51:57.096Z,1.30
2023-03-28T10:54:50.684Z,1.30
2023-03-28T10:57:46.796Z,1.65
2023-03-28T11:03:35.002Z,1.25
2023-03-28T11:06:15.341Z,1.20
2023-03-28T11:47:31.522Z,1.60
2023-03-28T11:50:30.978Z,1.30
2023-03-28T11:53:12.716Z,1.20
2023-03-28T11:56:07.025Z,1.40
2023-03-28T12:01:47.816Z,1.40
2023-03-28T12:04:22.471Z,1.48
2023-03-28T12:07:03.268Z,1.48
2023-03-28T12:09:56.321Z,1.30
2023-03-28T12:12:38.730Z,1.63
2023-03-28T12:15:14.505Z,1.27
2023-03-28T12:17:59.670Z,1.42
2023-03-28T12:20:33.942Z,1.48
2023-03-28T12:23:24.090Z,1.57
2023-03-28T12:26:21.479Z,1.40
2023-03-28T12:28:53.849Z,1.35
2023-03-28T12:31:57.535Z,1.20
2023-03-28T12:34:44.182Z,1.30
2023-03-28T12:37:28.797Z,1.27
2023-03-28T12:40:36.521Z,1.15
2023-03-28T12:43:04.815Z,1.60
2023-03-28T12:45:37.260Z,1.10
2023-03-28T12:48:14.018Z,1.17
2023-03-28T12:50:52.711Z,1.67
2023-03-28T12:53:21.915Z,1.20
2023-03-28T12:55:50.464Z,1.20
2023-03-28T12:58:34.313Z,1.20
2023-03-28T13:01:43.013Z,1.13
2023-03-28T13:11:14.859Z,1.03
2023-03-28T13:13:50.691Z,1.20
2023-03-28T13:16:42.900Z,1.30
2023-03-28T13:19:12.092Z,1.10
2023-03-28T13:21:55.190Z,1.30
2023-03-28T13:24:24.688Z,1.20
2023-03-28T13:26:55.403Z,0.98
2023-03-28T13:29:46.202Z,0.95
2023-03-28T13:32:18.657Z,1.27
2023-03-28T13:35:06.299Z,1.10
2023-03-28T13:37:47.381Z,0.90
2023-03-28T13:40:51.373Z,0.93
2023-03-28T13:43:56.107Z,0.90
2023-03-28T13:46:32.118Z,1.00
2023-03-28T13:49:06.836Z,0.90
2023-03-28T13:51:46.426Z,0.95
2023-03-28T13:54:13.687Z,1.30
2023-03-28T13:56:44.678Z,0.93
2023-03-28T13:59:16.082Z,0.95
2023-03-28T14:01:53.702Z,0.90
2023-03-28T14:04:26.491Z,0.77
2023-03-28T14:06:54.458Z,1.00
2023-03-28T14:09:27.692Z,0.80
2023-03-28T14:11:57.957Z,1.10
2023-03-28T14:14:45.911Z,0.68
2023-03-28T14:17:33.958Z,0.90
2023-03-28T14:20:05.351Z,0.80
2023-03-28T14:22:49.393Z,1.10
2023-03-28T14:25:24.805Z,0.88
2023-03-28T14:27:54.990Z,0.85
2023-03-28T14:30:26.643Z,0.80
2023-03-28T14:33:14.800Z,0.80
2023-03-28T14:35:43.126Z,0.90
2023-03-28T14:38:16.863Z,0.88
2023-03-28T14:40:45.881Z,0.80
2023-03-28T14:43:13.735Z,0.73
2023-03-28T14:45:43.474Z,0.88
2023-03-28T14:48:17.331Z,0.70
2023-03-28T14:50:46.044Z,0.80
2023-03-28T14:53:19.844Z,0.70
2023-03-28T14:55:51.090Z,1.00
2023-03-28T14:58:19.170Z,0.90
2023-03-28T15:00:52.922Z,1.00
2023-03-28T15:03:24.120Z,1.02
2023-03-28T15:05:54.540Z,0.98
2023-03-28T15:08:30.911Z,1.20
2023-03-28T15:11:03.695Z,1.08
2023-03-28T15:13:35.813Z,0.90
2023-03-28T15:16:05.589Z,1.10
2023-03-28T15:18:43.804Z,1.10
2023-03-28T15:21:11.700Z,1.10
2023-03-28T15:23:49.204Z,1.15
2023-03-28T15:26:25.479Z,1.10
2023-03-28T15:28:55.118Z,1.35
2023-03-28T15:31:22.516Z,0.90
2023-03-28T15:33:52.100Z,1.05
2023-03-28T15:36:22.475Z,1.20
2023-03-28T15:38:51.725Z,1.00
2023-03-28T15:41:28.885Z,1.27
2023-03-28T15:43:55.567Z,1.60
2023-03-28T15:46:30.423Z,1.00
2023-03-28T15:49:00.348Z,1.30
2023-03-28T15:51:28.325Z,1.25
2023-03-28T15:53:56.446Z,1.13
2023-03-28T15:56:41.126Z,1.00
2023-03-28T15:59:18.119Z,1.13
2023-03-28T16:01:45.021Z,1.13
2023-03-28T16:04:21.220Z,1.10
2023-03-28T16:06:48.920Z,1.45
2023-03-28T16:09:22.785Z,1.17
2023-03-28T16:12:00.121Z,1.02
2023-03-28T16:14:46.779Z,1.10
2023-03-28T16:17:29.117Z,1.33
2023-03-28T16:20:21.571Z,1.23
2023-03-28T16:22:49.071Z,1.25
2023-03-28T16:25:15.913Z,1.20
2023-03-28T16:27:42.870Z,1.20
2023-03-28T16:30:28.877Z,1.40
2023-03-28T16:32:56.193Z,1.40
2023-03-28T16:35:23.241Z,1.25
2023-03-28T16:37:49.886Z,1.30
2023-03-28T16:40:16.789Z,1.30
2023-03-28T16:42:43.718Z,1.20
2023-03-28T16:45:14.281Z,1.23
2023-03-28T16:47:42.092Z,1.77
2023-03-28T16:50:10.018Z,1.60
2023-03-28T16:52:40.433Z,1.30
2023-03-28T16:55:08.715Z,1.60
2023-03-28T16:57:37.019Z,1.42
2023-03-28T17:00:05.588Z,1.60
2023-03-28T17:02:32.407Z,1.70
2023-03-28T17:04:59.182Z,1.45
2023-03-28T17:07:25.948Z,1.95
2023-03-28T17:09:52.782Z,1.63
2023-03-28T17:12:21.229Z,1.63
2023-03-28T17:14:48.213Z,2.00
2023-03-28T17:17:15.771Z,1.60
2023-03-28T17:19:43.215Z,1.70
2023-03-28T17:22:10.148Z,1.60
2023-03-28T17:24:37.079Z,1.40
2023-03-28T17:27:04.176Z,1.33
2023-03-28T17:29:31.452Z,1.55
2023-03-28T17:31:58.363Z,1.63
2023-03-28T17:34:25.433Z,1.73
2023-03-28T17:36:53.486Z,1.50
2023-03-28T17:39:20.589Z,1.77
2023-03-28T17:41:47.554Z,1.77
2023-03-28T17:44:14.511Z,1.45
2023-03-28T17:46:41.523Z,1.58
2023-03-28T17:49:08.526Z,1.48
2023-03-28T17:51:35.524Z,1.48
2023-03-28T17:54:04.415Z,1.75
2023-03-28T17:56:31.173Z,1.60
2023-03-28T17:58:59.760Z,1.83
2023-03-28T18:01:26.477Z,1.60
2023-03-28T18:03:53.545Z,1.92
2023-03-28T18:06:41.192Z,1.88
2023-03-28T18:09:08.062Z,2.20
2023-03-28T18:11:35.985Z,1.88
2023-03-28T18:14:03.221Z,2.38
2023-03-28T18:16:30.213Z,2.22
2023-03-28T18:18:57.525Z,2.42
2023-03-28T18:21:26.393Z,2.05
2023-03-28T18:23:53.365Z,2.00
2023-03-28T18:26:20.259Z,1.52
2023-03-28T18:28:46.975Z,2.05
2023-03-28T18:31:17.490Z,1.70
2023-03-28T18:33:44.879Z,1.55
2023-03-28T18:36:12.945Z,1.95
2023-03-28T18:38:42.896Z,2.00
2023-03-28T18:41:11.025Z,2.00
2023-03-28T18:43:39.437Z,2.08
2023-03-28T18:46:15.360Z,2.20
2023-03-28T18:48:42.647Z,1.95
2023-03-28T18:51:09.448Z,2.15
2023-03-28T18:53:39.456Z,1.80
2023-03-28T18:56:07.528Z,1.92
2023-03-28T18:58:37.459Z,2.05
2023-03-28T19:01:05.942Z,2.08
2023-03-28T19:03:40.365Z,1.70
2023-03-28T19:06:09.450Z,1.77
2023-03-28T19:08:36.480Z,2.10
2023-03-28T19:11:14.858Z,1.42
2023-03-28T19:13:42.531Z,1.97
2023-03-28T19:16:16.995Z,1.90
2023-03-28T19:18:46.888Z,1.80
2023-03-28T19:21:14.865Z,1.50
2023-03-28T19:23:41.830Z,1.60
2023-03-28T19:26:11.742Z,1.95
2023-03-28T19:28:39.179Z,1.60
2023-03-28T19:31:08.191Z,1.70
2023-03-28T19:33:36.394Z,1.60
2023-03-28T19:36:05.759Z,1.67
2023-03-28T19:38:35.372Z,1.77
2023-03-28T19:41:09.233Z,1.85
2023-03-28T19:43:38.504Z,1.88
2023-03-28T19:46:07.750Z,1.65
2023-03-28T19:48:35.986Z,1.83
2023-03-28T19:51:03.440Z,1.77
2023-03-28T19:53:30.284Z,2.00
2023-03-28T19:55:59.280Z,2.00
2023-03-28T20:00:57.145Z,1.83
2023-03-28T20:03:24.500Z,1.60
2023-03-28T20:05:51.711Z,1.65
2023-03-28T20:08:19.082Z,1.80
2023-03-28T20:10:48.930Z,1.73
2023-03-28T20:13:17.126Z,1.83
2023-03-28T20:15:45.803Z,1.40
2023-03-28T20:18:14.671Z,1.67
2023-03-28T20:20:42.096Z,1.65
2023-03-28T20:23:09.787Z,1.73
2023-03-28T20:25:36.707Z,1.60
2023-03-28T20:28:04.366Z,1.60
2023-03-28T20:30:32.274Z,1.70
2023-03-28T20:32:59.524Z,1.77
2023-03-28T20:35:27.430Z,1.38
2023-03-28T20:37:54.500Z,1.58
2023-03-28T20:40:23.859Z,1.30
2023-03-28T20:42:52.514Z,1.42
2023-03-28T20:45:22.437Z,1.55
2023-03-28T20:47:56.707Z,1.52
2023-03-28T20:50:34.026Z,1.40
2023-03-28T20:53:03.257Z,1.65
2023-03-28T20:55:32.157Z,1.50
2023-03-28T20:57:58.961Z,1.45
2023-03-28T21:00:33.754Z,1.17
2023-03-28T21:03:00.822Z,1.20
2023-03-28T21:05:28.795Z,1.60
2023-03-28T21:07:56.618Z,1.50
2023-03-28T21:10:23.559Z,1.33
2023-03-28T21:12:50.941Z,1.60
2023-03-28T21:15:18.163Z,1.20
2023-03-28T21:17:48.969Z,1.30
2023-03-28T21:20:15.859Z,1.35
2023-03-28T21:22:42.583Z,1.27
2023-03-28T21:25:10.628Z,1.23
2023-03-28T21:27:37.568Z,1.20
2023-03-28T21:30:08.018Z,1.40
2023-03-28T21:32:35.841Z,1.02
2023-03-28T21:35:04.105Z,0.93
2023-03-28T21:37:31.420Z,1.33
2023-03-28T21:39:58.206Z,1.23
2023-03-28T21:42:25.529Z,1.50
2023-03-28T21:44:52.265Z,1.08
2023-03-28T21:47:18.963Z,1.20
2023-03-28T21:49:46.084Z,1.25
2023-03-28T21:52:13.117Z,1.27
2023-03-28T21:54:39.975Z,1.10
2023-03-28T21:57:06.792Z,1.20
2023-03-28T21:59:33.532Z,1.05
2023-03-28T22:02:00.649Z,1.17
2023-03-28T22:04:28.531Z,1.08
2023-03-28T22:06:55.685Z,1.05
2023-03-28T22:09:22.556Z,1.25
2023-03-28T22:11:49.447Z,1.25
2023-03-28T22:14:16.194Z,1.10
2023-03-28T22:16:42.869Z,0.90
2023-03-28T22:19:09.852Z,1.10
2023-03-28T22:21:37.509Z,1.13
2023-03-28T22:24:07.054Z,0.90
2023-03-28T22:29:00.801Z,1.10
2023-03-28T22:31:28.268Z,1.45
2023-03-28T22:33:55.028Z,1.20
2023-03-28T22:36:21.917Z,1.30
2023-03-28T22:38:48.731Z,0.90
2023-03-28T22:41:15.754Z,0.85
2023-03-28T22:43:42.809Z,0.85
2023-03-28T22:46:12.648Z,0.85
2023-03-28T22:48:39.623Z,0.90
2023-03-28T22:51:11.736Z,1.00
2023-03-28T22:53:39.740Z,1.20
2023-03-28T22:56:07.542Z,0.88
2023-03-28T22:58:34.416Z,0.90
2023-03-28T23:01:01.581Z,0.88
2023-03-28T23:03:28.543Z,1.00
2023-03-28T23:05:55.408Z,0.90
2023-03-28T23:08:22.381Z,1.15
2023-03-28T23:10:49.424Z,0.82
2023-03-28T23:13:16.526Z,1.02
2023-03-28T23:15:43.830Z,0.90
2023-03-28T23:18:11.009Z,1.00
2023-03-28T23:20:38.211Z,0.90
2023-03-28T23:23:05.012Z,0.82
2023-03-28T23:25:33.111Z,0.80
2023-03-28T23:27:59.983Z,0.90
2023-03-28T23:30:27.202Z,0.90
2023-03-28T23:32:53.921Z,0.95
2023-03-28T23:35:20.863Z,1.10
2023-03-28T23:37:47.695Z,0.90
2023-03-28T23:40:15.234Z,1.10
2023-03-28T23:42:44.708Z,1.00
2023-03-28T23:45:14.681Z,0.70
2023-03-28T23:47:42.829Z,0.93
2023-03-28T23:50:10.624Z,0.90
2023-03-28T23:52:37.441Z,0.70
2023-03-28T23:55:04.685Z,0.90
2023-03-28T23:57:31.336Z,0.80
2023-03-28T23:59:58.114Z,0.80
